Time,TemperatureF,DewpointF,PressureIn,WindDirection,WindDirectionDegrees,WindSpeedMPH,WindSpeedGustMPH,Humidity,HourlyPrecipIn,Conditions,Clouds,dailyrainin,SoftwareType,DateUTC
2013-08-02 00:02:00,55.0,53.0,30.11,South,180,0.0,0.0,92,0.00,,,0.01,,2013-08-02 06:02:00,
2013-08-02 00:12:00,56.0,54.0,30.10,South,180,0.0,2.0,92,0.00,,,0.01,,2013-08-02 06:12:00,
2013-08-02 00:33:00,55.0,52.0,30.09,SE,135,3.0,4.0,91,0.00,,,0.01,,2013-08-02 06:33:00,
2013-08-02 00:43:00,55.0,53.0,30.09,SE,135,2.0,4.0,92,0.00,,,0.01,,2013-08-02 06:43:00,
2013-08-02 00:52:00,55.0,53.0,30.09,WSW,248,1.0,2.0,92,0.00,,,0.01,,2013-08-02 06:52:00,
2013-08-02 01:02:00,55.0,53.0,30.09,SE,135,2.0,3.0,92,0.00,,,0.01,,2013-08-02 07:02:00,
2013-08-02 01:12:00,55.0,53.0,30.09,South,180,2.0,4.0,92,0.00,,,0.01,,2013-08-02 07:12:00,
2013-08-02 01:33:00,55.0,54.0,30.08,SE,135,0.0,2.0,95,0.05,,,0.07,,2013-08-02 07:33:00,
2013-08-02 01:44:00,55.0,54.0,30.08,SE,135,0.0,2.0,96,0.05,,,0.07,,2013-08-02 07:44:00,
2013-08-02 01:53:00,55.0,54.0,30.09,South,180,0.0,1.0,96,0.07,,,0.08,,2013-08-02 07:53:00,
2013-08-02 02:02:00,55.0,54.0,30.10,West,270,0.0,3.0,97,0.08,,,0.09,,2013-08-02 08:02:00,
2013-08-02 02:12:00,55.0,54.0,30.09,East,90,2.0,7.0,98,0.14,,,0.18,,2013-08-02 08:12:00,
2013-08-02 02:22:00,55.0,54.0,30.09,NE,45,0.0,2.0,98,0.16,,,0.22,,2013-08-02 08:22:00,
2013-08-02 02:32:00,55.0,54.0,30.09,South,180,1.0,2.0,98,0.15,,,0.22,,2013-08-02 08:32:00,
2013-08-02 02:43:00,54.0,53.0,30.08,SW,225,0.0,2.0,98,0.16,,,0.23,,2013-08-02 08:43:00,
2013-08-02 02:53:00,54.0,53.0,30.09,East,90,1.0,2.0,98,0.15,,,0.23,,2013-08-02 08:53:00,
2013-08-02 03:02:00,54.0,53.0,30.08,East,90,1.0,2.0,98,0.15,,,0.24,,2013-08-02 09:02:00,
2013-08-02 03:12:00,54.0,54.0,30.09,SE,135,0.0,2.0,99,0.12,,,0.25,,2013-08-02 09:12:00,
2013-08-02 03:22:00,54.0,54.0,30.08,South,180,0.0,2.0,99,0.04,,,0.27,,2013-08-02 09:22:00,
2013-08-02 03:33:00,53.0,53.0,30.08,South,180,0.0,2.0,99,0.05,,,0.28,,2013-08-02 09:33:00,
2013-08-02 03:43:00,53.0,53.0,30.07,SE,135,0.0,2.0,99,0.07,,,0.30,,2013-08-02 09:43:00,
2013-08-02 03:52:00,53.0,53.0,30.07,SE,135,0.0,2.0,99,0.08,,,0.31,,2013-08-02 09:52:00,
2013-08-02 04:02:00,53.0,53.0,30.07,SE,135,0.0,2.0,99,0.08,,,0.33,,2013-08-02 10:02:00,
2013-08-02 04:12:00,53.0,53.0,30.07,SE,135,0.0,2.0,99,0.07,,,0.33,,2013-08-02 10:12:00,
2013-08-02 04:23:00,53.0,53.0,30.08,South,180,1.0,2.0,99,0.07,,,0.34,,2013-08-02 10:23:00,
2013-08-02 04:33:00,53.0,53.0,30.08,East,90,1.0,2.0,99,0.04,,,0.34,,2013-08-02 10:33:00,
2013-08-02 04:43:00,53.0,53.0,30.09,South,180,0.0,1.0,99,0.03,,,0.34,,2013-08-02 10:43:00,
2013-08-02 04:52:00,53.0,53.0,30.09,SE,135,0.0,2.0,99,0.01,,,0.34,,2013-08-02 10:52:00,
2013-08-02 05:02:00,53.0,53.0,30.09,SE,135,0.0,1.0,99,0.01,,,0.34,,2013-08-02 11:02:00,
2013-08-02 05:11:00,53.0,53.0,30.09,West,270,0.0,1.0,99,0.01,,,0.34,,2013-08-02 11:11:00,
2013-08-02 05:32:00,53.0,53.0,30.08,SE,135,0.0,2.0,99,0.00,,,0.34,,2013-08-02 11:32:00,
2013-08-02 05:42:00,53.0,53.0,30.09,South,180,1.0,2.0,99,0.00,,,0.34,,2013-08-02 11:42:00,
2013-08-02 05:52:00,53.0,53.0,30.09,South,180,0.0,2.0,99,0.00,,,0.34,,2013-08-02 11:52:00,
2013-08-02 06:01:00,52.0,52.0,30.08,South,180,0.0,2.0,99,0.00,,,0.34,,2013-08-02 12:01:00,
2013-08-02 06:11:00,52.0,52.0,30.09,South,180,0.0,1.0,99,0.00,,,0.34,,2013-08-02 12:11:00,
2013-08-02 06:32:00,52.0,52.0,30.09,SE,135,0.0,1.0,99,0.00,,,0.34,,2013-08-02 12:32:00,
2013-08-02 06:42:00,52.0,52.0,30.09,SE,135,0.0,0.0,99,0.00,,,0.34,,2013-08-02 12:42:00,
2013-08-02 06:52:00,52.0,52.0,30.09,SE,135,0.0,0.0,99,0.00,,,0.34,,2013-08-02 12:52:00,
2013-08-02 07:01:00,53.0,53.0,30.10,South,180,0.0,0.0,99,0.00,,,0.34,,2013-08-02 13:01:00,
2013-08-02 07:11:00,53.0,53.0,30.09,East,90,0.0,0.0,99,0.00,,,0.34,,2013-08-02 13:11:00,
2013-08-02 07:22:00,53.0,53.0,30.09,South,180,0.0,0.0,99,0.00,,,0.34,,2013-08-02 13:22:00,
2013-08-02 07:42:00,53.0,53.0,30.10,SE,135,0.0,0.0,99,0.00,,,0.34,,2013-08-02 13:42:00,
2013-08-02 07:52:00,53.0,53.0,30.10,SE,135,0.0,0.0,99,0.00,,,0.34,,2013-08-02 13:52:00,
2013-08-02 08:02:00,53.0,53.0,30.10,South,180,0.0,2.0,99,0.00,,,0.34,,2013-08-02 14:02:00,
2013-08-02 08:22:00,53.0,53.0,30.11,NW,315,0.0,1.0,99,0.00,,,0.34,,2013-08-02 14:22:00,
2013-08-02 08:43:00,54.0,54.0,30.12,West,270,0.0,2.0,99,0.00,,,0.34,,2013-08-02 14:43:00,
2013-08-02 08:53:00,54.0,54.0,30.12,West,270,0.0,1.0,99,0.00,,,0.34,,2013-08-02 14:53:00,
2013-08-02 09:03:00,54.0,54.0,30.12,West,270,0.0,0.0,99,0.01,,,0.35,,2013-08-02 15:03:00,
2013-08-02 09:12:00,54.0,54.0,30.12,West,270,0.0,2.0,99,0.01,,,0.35,,2013-08-02 15:12:00,
2013-08-02 09:32:00,55.0,55.0,30.12,South,180,0.0,2.0,99,0.02,,,0.36,,2013-08-02 15:32:00,
2013-08-02 09:52:00,55.0,55.0,30.13,North,0,0.0,2.0,99,0.02,,,0.36,,2013-08-02 15:52:00,
2013-08-02 10:01:00,55.0,55.0,30.13,NW,315,1.0,2.0,99,0.01,,,0.36,,2013-08-02 16:01:00,
2013-08-02 10:11:00,55.0,55.0,30.14,North,0,0.0,2.0,99,0.01,,,0.36,,2013-08-02 16:11:00,
2013-08-02 10:32:00,57.0,57.0,30.14,SW,225,0.0,2.0,99,0.00,,,0.36,,2013-08-02 16:32:00,
2013-08-02 10:42:00,58.0,58.0,30.14,North,0,1.0,4.0,99,0.01,,,0.37,,2013-08-02 16:42:00,
2013-08-02 10:52:00,58.0,57.0,30.14,NE,45,0.0,2.0,98,0.01,,,0.37,,2013-08-02 16:52:00,
2013-08-02 11:01:00,59.0,58.0,30.14,West,270,0.0,1.0,97,0.01,,,0.37,,2013-08-02 17:01:00,
2013-08-02 11:11:00,59.0,58.0,30.14,NW,315,1.0,3.0,96,0.01,,,0.37,,2013-08-02 17:11:00,
2013-08-02 11:22:00,59.0,58.0,30.14,NW,315,2.0,4.0,95,0.01,,,0.37,,2013-08-02 17:22:00,
2013-08-02 11:34:00,59.0,57.0,30.14,South,180,2.0,4.0,94,0.01,,,0.37,,2013-08-02 17:34:00,
2013-08-02 11:43:00,59.0,56.0,30.15,North,0,1.0,2.0,91,0.00,,,0.37,,2013-08-02 17:43:00,
2013-08-02 11:52:00,59.0,56.0,30.15,SE,135,1.0,4.0,91,0.00,,,0.37,,2013-08-02 17:52:00,
2013-08-02 12:02:00,59.0,56.0,30.16,NE,45,1.0,4.0,89,0.00,,,0.37,,2013-08-02 18:02:00,
2013-08-02 12:11:00,59.0,55.0,30.16,SW,225,0.0,6.0,88,0.00,,,0.37,,2013-08-02 18:11:00,
2013-08-02 12:32:00,60.0,56.0,30.16,SW,225,2.0,3.0,87,0.00,,,0.37,,2013-08-02 18:32:00,
2013-08-02 12:52:00,60.0,55.0,30.16,South,180,1.0,4.0,85,0.00,,,0.37,,2013-08-02 18:52:00,
2013-08-02 13:42:00,59.0,54.0,30.17,South,180,3.0,4.0,84,0.01,,,0.38,,2013-08-02 19:42:00,
2013-08-02 13:52:00,59.0,54.0,30.17,NW,315,0.0,4.0,84,0.01,,,0.38,,2013-08-02 19:52:00,
2013-08-02 14:02:00,60.0,55.0,30.17,South,180,2.0,4.0,84,0.02,,,0.40,,2013-08-02 20:02:00,
2013-08-02 14:12:00,60.0,55.0,30.17,NW,315,0.0,4.0,83,0.02,,,0.40,,2013-08-02 20:12:00,
2013-08-02 14:32:00,60.0,55.0,30.18,West,270,3.0,11.0,83,0.01,,,0.40,,2013-08-02 20:32:00,
2013-08-02 14:43:00,60.0,54.0,30.19,SW,225,2.0,8.0,81,0.01,,,0.40,,2013-08-02 20:43:00,
2013-08-02 14:52:00,60.0,54.0,30.19,South,180,3.0,8.0,81,0.01,,,0.40,,2013-08-02 20:52:00,
2013-08-02 15:02:00,60.0,54.0,30.19,West,270,2.0,4.0,80,0.00,,,0.40,,2013-08-02 21:02:00,
2013-08-02 15:11:00,60.0,54.0,30.19,South,180,1.0,4.0,81,0.00,,,0.40,,2013-08-02 21:11:00,
2013-08-02 15:32:00,59.0,54.0,30.19,South,180,2.0,3.0,82,0.01,,,0.41,,2013-08-02 21:32:00,
2013-08-02 15:43:00,59.0,54.0,30.20,NW,315,1.0,3.0,83,0.01,,,0.41,,2013-08-02 21:43:00,
2013-08-02 15:52:00,59.0,54.0,30.20,SE,135,1.0,3.0,84,0.01,,,0.41,,2013-08-02 21:52:00,
2013-08-02 16:01:00,59.0,55.0,30.20,SW,225,1.0,4.0,86,0.03,,,0.43,,2013-08-02 22:01:00,
2013-08-02 16:32:00,59.0,55.0,30.20,SE,135,1.0,2.0,86,0.03,,,0.44,,2013-08-02 22:32:00,
2013-08-02 16:52:00,59.0,55.0,30.21,SW,225,0.0,2.0,88,0.04,,,0.46,,2013-08-02 22:52:00,
2013-08-02 17:01:00,59.0,56.0,30.21,SW,225,0.0,1.0,89,0.03,,,0.46,,2013-08-02 23:01:00,
2013-08-02 17:11:00,59.0,56.0,30.22,SW,225,0.0,2.0,89,0.03,,,0.47,,2013-08-02 23:11:00,
2013-08-02 17:43:00,59.0,55.0,30.22,SW,225,0.0,3.0,88,0.04,,,0.49,,2013-08-02 23:43:00,
2013-08-02 17:53:00,59.0,55.0,30.22,SW,225,0.0,2.0,88,0.05,,,0.50,,2013-08-02 23:53:00,
2013-08-02 18:02:00,58.0,54.0,30.22,SW,225,0.0,2.0,88,0.04,,,0.50,,2013-08-03 00:02:00,
2013-08-02 18:52:00,57.0,55.0,30.23,West,270,0.0,2.0,92,0.05,,,0.56,,2013-08-03 00:52:00,
2013-08-02 19:02:00,57.0,55.0,30.23,SE,135,0.0,2.0,93,0.05,,,0.56,,2013-08-03 01:02:00,
2013-08-02 19:42:00,56.0,55.0,30.24,SE,135,0.0,2.0,95,0.05,,,0.60,,2013-08-03 01:42:00,
2013-08-02 20:02:00,56.0,55.0,30.24,SE,135,0.0,1.0,96,0.05,,,0.62,,2013-08-03 02:02:00,
2013-08-02 20:32:00,55.0,54.0,30.24,South,180,0.0,1.0,96,0.07,,,0.66,,2013-08-03 02:32:00,
2013-08-02 20:43:00,55.0,54.0,30.25,SE,135,0.0,1.0,97,0.09,,,0.69,,2013-08-03 02:43:00,
2013-08-02 20:52:00,55.0,54.0,30.24,East,90,0.0,2.0,98,0.08,,,0.69,,2013-08-03 02:52:00,
2013-08-02 21:43:00,54.0,54.0,30.26,SE,135,0.0,2.0,99,0.04,,,0.74,,2013-08-03 03:43:00,
2013-08-02 21:53:00,54.0,54.0,30.26,SE,135,1.0,2.0,99,0.03,,,0.74,,2013-08-03 03:53:00,
2013-08-02 22:02:00,53.0,53.0,30.26,SE,135,2.0,3.0,99,0.03,,,0.75,,2013-08-03 04:02:00,
2013-08-02 22:11:00,53.0,53.0,30.26,SE,135,1.0,2.0,99,0.02,,,0.75,,2013-08-03 04:11:00,
2013-08-02 23:02:00,53.0,53.0,30.27,South,180,1.0,3.0,99,0.01,,,0.75,,2013-08-03 05:02:00,
2013-08-02 23:32:00,52.0,52.0,30.27,SE,135,0.0,2.0,99,0.00,,,0.75,,2013-08-03 05:32:00,
2013-08-02 23:52:00,51.0,51.0,30.27,SE,135,1.0,2.0,99,0.00,,,0.75,,2013-08-03 05:52:00,